Paglia Orba — FNIL — position and weather

sailwx.info

Track history (hours):
 
Tides and Currents Weather Stations Pressure Air Temp Water Temp Dewpoint Dewpoint Depression Visibility Wind Speed Wind Dir Waves Ship Positions

Paglia Orba

Last reported at 2017-Nov-20 00:22 UTC. Time now 2017-Nov-23 18:24 UTC.
Position N 43°19' E 005°22'.

Length 172 m; beam 31 m.

Type: Passenger vessel. MMSI: 227184000.

Date/timePositionNaut miles runAvg speedWind from/ knotsBaromVisibWave heightAir tempDewpointWater temp
2017-Nov-20 00:22N 43°19' E 005°22'0 0.0
2017-Nov-20 00:00N 43°19' E 005°22'0 0.0
2017-Nov-19 22:54N 43°19' E 005°22'0 0.0
2017-Nov-19 22:23N 43°19' E 005°22'0 0.0
2017-Nov-19 22:00N 43°19' E 005°22'0 0.0
2017-Nov-19 21:30N 43°19' E 005°22'0 0.0
2017-Nov-19 20:47N 43°19' E 005°22'0 0.0
2017-Nov-19 20:27N 43°19' E 005°22'0 0.0
2017-Nov-19 19:02N 43°19' E 005°22'0 0.0
2017-Nov-19 18:59N 43°19' E 005°22'0 0.0
2017-Nov-19 18:19N 43°19' E 005°22'0 0.0
2017-Nov-19 17:31N 43°19' E 005°22'0 0.0
2017-Nov-19 17:15N 43°19' E 005°22'0 0.0
2017-Nov-19 12:30N 43°19' E 005°22'0 0.0
2017-Nov-19 11:14N 43°19' E 005°22'0 0.0
2017-Nov-19 10:55N 43°19' E 005°22'0 0.0
2017-Nov-19 10:25N 43°19' E 005°22'0 0.0
2017-Nov-19 09:41N 43°19' E 005°22'0 0.0
2017-Nov-19 09:25N 43°19' E 005°22'0 0.0
2017-Nov-19 08:08N 43°19' E 005°22'0 0.0
2017-Nov-19 07:57N 43°19' E 005°22'0 0.0
2017-Nov-19 07:28N 43°19' E 005°22'0 0.2
2017-Nov-19 06:57N 43°19' E 005°22'4 8.6
2017-Nov-19 06:31N 43°16' E 005°18'4 0.1
2017-Nov-17 17:48N 43°12' E 005°18'515.4
2017-Nov-17 17:30N 43°17' E 005°20'3 1.2
2017-Nov-17 15:26N 43°19' E 005°22'0 0.0
2017-Nov-17 15:00N 43°19' E 005°22'0 0.0
2017-Nov-17 07:14N 43°19' E 005°22'1 4.4
2017-Nov-17 07:00N 43°18' E 005°21'7817.1
2017-Nov-17 02:27N 42°59' E 007°05'1619.2
2017-Nov-17 01:39N 43°01' E 007°26'318.8
2017-Nov-17 01:29N 43°01' E 007°30'6719.2
2017-Nov-16 22:00N 43°04' E 009°02'1019.3
2017-Nov-16 21:29N 43°04' E 009°15'92 4.3
2017-Nov-16 00:07N 42°59' E 007°09'218.6
2017-Nov-16 00:00N 42°59' E 007°06'8018.5
2017-Nov-15 19:40N 43°13' E 005°18'316.8
2017-Nov-15 19:28N 43°16' E 005°20'3 0.5
2017-Nov-15 14:24N 43°18' E 005°22'0 0.0
2017-Nov-15 13:13N 43°18' E 005°22'0 0.0
2017-Nov-15 11:51N 43°18' E 005°22'0 0.0
2017-Nov-15 10:41N 43°18' E 005°22'0 0.0
2017-Nov-15 10:17N 43°18' E 005°22'0 0.0
2017-Nov-15 09:38N 43°18' E 005°22'0 0.0
2017-Nov-15 09:08N 43°18' E 005°22'0 1.6
2017-Nov-15 09:00N 43°18' E 005°22'4 8.8
2017-Nov-15 08:31N 43°14' E 005°20'7318.8
2017-Nov-15 04:39N 43°01' E 006°57'319.0
2017-Nov-15 04:30N 43°02' E 007°01'1018.9
2017-Nov-15 04:00N 43°03' E 007°14'1019.2
2017-Nov-15 03:31N 43°05' E 007°26'1019.1
2017-Nov-15 03:01N 43°08' E 007°39'4718.5
2017-Nov-15 00:28N 43°16' E 008°43'817.9
2017-Nov-15 00:01N 43°16' E 008°54'1519.1
2017-Nov-14 23:14N 43°10' E 009°12'419.4
2017-Nov-14 23:00N 43°08' E 009°18'91 4.3
2017-Nov-14 01:38N 42°59' E 007°13'316.9
2017-Nov-14 01:28N 42°59' E 007°09'18 0.8
2017-Nov-13 02:01N 43°12' E 007°26'815.4
2017-Nov-13 01:30N 43°15' E 007°36'4713.0
2017-Nov-12 21:52N 43°18' E 008°41'411.3
2017-Nov-12 21:30N 43°16' E 008°47'611.9
2017-Nov-12 21:00N 43°14' E 008°54'714.1
2017-Nov-12 20:31N 43°12' E 009°03'714.8
2017-Nov-12 20:00N 43°09' E 009°12'1015.7
2017-Nov-12 19:21N 43°05' E 009°25'0 0.0
2017-Nov-12 05:02N 43°05' E 009°25'016.8
2017-Nov-12 05:00N 43°05' E 009°25'18017.1
2017-Nov-11 18:28N 43°13' E 005°18'6 0.5
2017-Nov-11 05:52N 43°18' E 005°22'1 4.1
2017-Nov-11 05:30N 43°17' E 005°20'7916.1
2017-Nov-11 00:36N 42°59' E 007°06'219.9
2017-Nov-11 00:30N 42°59' E 007°08'1419.9
2017-Nov-10 23:47N 43°00' E 007°28'7019.5
2017-Nov-10 20:12N 43°04' E 009°03'419.5
2017-Nov-10 20:00N 43°04' E 009°09'1220.0
2017-Nov-10 19:23N 43°04' E 009°25'  
Track history (hours):
 
Tides and Currents Weather Stations Pressure Air Temp Water Temp Dewpoint Dewpoint Depression Visibility Wind Speed Wind Dir Waves Ship Positions

Paglia Orba

Last reported at 2017-Nov-20 00:22 UTC. Time now 2017-Nov-23 18:24 UTC.
Position N 43°19' E 005°22'.

Length 172 m; beam 31 m.

Type: Passenger vessel. MMSI: 227184000.

Date/timePositionNaut miles runAvg speedWind from/ knotsBaromVisibWave heightAir tempDewpointWater temp
2017-Nov-20 00:22N 43°19' E 005°22'0 0.0
2017-Nov-20 00:00N 43°19' E 005°22'0 0.0
2017-Nov-19 22:54N 43°19' E 005°22'0 0.0
2017-Nov-19 22:23N 43°19' E 005°22'0 0.0
2017-Nov-19 22:00N 43°19' E 005°22'0 0.0
2017-Nov-19 21:30N 43°19' E 005°22'0 0.0
2017-Nov-19 20:47N 43°19' E 005°22'0 0.0
2017-Nov-19 20:27N 43°19' E 005°22'0 0.0
2017-Nov-19 19:02N 43°19' E 005°22'0 0.0
2017-Nov-19 18:59N 43°19' E 005°22'0 0.0
2017-Nov-19 18:19N 43°19' E 005°22'0 0.0
2017-Nov-19 17:31N 43°19' E 005°22'0 0.0
2017-Nov-19 17:15N 43°19' E 005°22'0 0.0
2017-Nov-19 12:30N 43°19' E 005°22'0 0.0
2017-Nov-19 11:14N 43°19' E 005°22'0 0.0
2017-Nov-19 10:55N 43°19' E 005°22'0 0.0
2017-Nov-19 10:25N 43°19' E 005°22'0 0.0
2017-Nov-19 09:41N 43°19' E 005°22'0 0.0
2017-Nov-19 09:25N 43°19' E 005°22'0 0.0
2017-Nov-19 08:08N 43°19' E 005°22'0 0.0
2017-Nov-19 07:57N 43°19' E 005°22'0 0.0
2017-Nov-19 07:28N 43°19' E 005°22'0 0.2
2017-Nov-19 06:57N 43°19' E 005°22'4 8.6
2017-Nov-19 06:31N 43°16' E 005°18'4 0.1
2017-Nov-17 17:48N 43°12' E 005°18'515.4
2017-Nov-17 17:30N 43°17' E 005°20'3 1.2
2017-Nov-17 15:26N 43°19' E 005°22'0 0.0
2017-Nov-17 15:00N 43°19' E 005°22'0 0.0
2017-Nov-17 07:14N 43°19' E 005°22'1 4.4
2017-Nov-17 07:00N 43°18' E 005°21'7817.1
2017-Nov-17 02:27N 42°59' E 007°05'1619.2
2017-Nov-17 01:39N 43°01' E 007°26'318.8
2017-Nov-17 01:29N 43°01' E 007°30'6719.2
2017-Nov-16 22:00N 43°04' E 009°02'1019.3
2017-Nov-16 21:29N 43°04' E 009°15'92 4.3
2017-Nov-16 00:07N 42°59' E 007°09'218.6
2017-Nov-16 00:00N 42°59' E 007°06'8018.5
2017-Nov-15 19:40N 43°13' E 005°18'316.8
2017-Nov-15 19:28N 43°16' E 005°20'3 0.5
2017-Nov-15 14:24N 43°18' E 005°22'0 0.0
2017-Nov-15 13:13N 43°18' E 005°22'0 0.0
2017-Nov-15 11:51N 43°18' E 005°22'0 0.0
2017-Nov-15 10:41N 43°18' E 005°22'0 0.0
2017-Nov-15 10:17N 43°18' E 005°22'0 0.0
2017-Nov-15 09:38N 43°18' E 005°22'0 0.0
2017-Nov-15 09:08N 43°18' E 005°22'0 1.6
2017-Nov-15 09:00N 43°18' E 005°22'4 8.8
2017-Nov-15 08:31N 43°14' E 005°20'7318.8
2017-Nov-15 04:39N 43°01' E 006°57'319.0
2017-Nov-15 04:30N 43°02' E 007°01'1018.9
2017-Nov-15 04:00N 43°03' E 007°14'1019.2
2017-Nov-15 03:31N 43°05' E 007°26'1019.1
2017-Nov-15 03:01N 43°08' E 007°39'4718.5
2017-Nov-15 00:28N 43°16' E 008°43'817.9
2017-Nov-15 00:01N 43°16' E 008°54'1519.1
2017-Nov-14 23:14N 43°10' E 009°12'419.4
2017-Nov-14 23:00N 43°08' E 009°18'91 4.3
2017-Nov-14 01:38N 42°59' E 007°13'316.9
2017-Nov-14 01:28N 42°59' E 007°09'18 0.8
2017-Nov-13 02:01N 43°12' E 007°26'815.4
2017-Nov-13 01:30N 43°15' E 007°36'4713.0
2017-Nov-12 21:52N 43°18' E 008°41'411.3
2017-Nov-12 21:30N 43°16' E 008°47'611.9
2017-Nov-12 21:00N 43°14' E 008°54'714.1
2017-Nov-12 20:31N 43°12' E 009°03'714.8
2017-Nov-12 20:00N 43°09' E 009°12'1015.7
2017-Nov-12 19:21N 43°05' E 009°25'0 0.0
2017-Nov-12 05:02N 43°05' E 009°25'016.8
2017-Nov-12 05:00N 43°05' E 009°25'18017.1
2017-Nov-11 18:28N 43°13' E 005°18'6 0.5
2017-Nov-11 05:52N 43°18' E 005°22'1 4.1
2017-Nov-11 05:30N 43°17' E 005°20'7916.1
2017-Nov-11 00:36N 42°59' E 007°06'219.9
2017-Nov-11 00:30N 42°59' E 007°08'1419.9
2017-Nov-10 23:47N 43°00' E 007°28'7019.5
2017-Nov-10 20:12N 43°04' E 009°03'419.5
2017-Nov-10 20:00N 43°04' E 009°09'1220.0
2017-Nov-10 19:23N 43°04' E 009°25'  

Dump ship's entire track history